Current | Forecast
Updated: 12:00 AM CEST on June 26, 2017
Observed at Zaragoza, Spain
Temperature 19°C
Humidity 100%
Dew Point 19°C
Wind North at 6 km/h
Pressure 1015 hPa (Steady)
Conditions Scattered Clouds
Visibility 10.0 kilometers
UV 0 out of 16
Clouds (FEW) : 914 m
Scattered Clouds (SCT) : 2133 m
Yesterday's Maximum 30°C
Yesterday's Minimum 19°C approx.
Yesterday's Cooling Degree Days 11 approx.
Sunrise6:33 AM CEST
Sunset9:46 PM CEST
Moon Rise9:14 AM CEST
Moon Set11:48 PM CEST
Moon PhaseMoon Phase
Waxing Crescent
Raw METARMETAR LEZG 252200Z 36003KT 9999 FEW030CB SCT070 19/19 Q1015


Monday
. High: 75° F.
Tuesday
. High: 86° F.
Wednesday
. High: 71° F.
Thursday
. High: 69° F.
Friday
. High: 78° F.
Saturday
. High: 75° F.
Sunday
. High: 69° F.
Monday
. High: 78° F.

Units: English | Metric

Find the Weather for any City, State or Zipcode, or Country:

U.S. State List | Severe Weather | Tropical Storms | Ski Conditions
United States | Canada | Central America | South America | Asia | Europe | Australia | Africa | Islands

Weather Underground

© Copyright 2017
The Weather Company, LLC